Terminal Aerodrome Forecast
Issued by NWS

Home | Current Version | Previous Version | Graphics & Text | Print | Product List | Glossary On
Versions: 1 2 3 4 5 6 7 8 9 10 11 12 13 14 15 16 17 18 19 20 21 22 23 24
000
FTUS43 KABR 281100
TAFMBG
TAF
KMBG 281128Z 2812/2912 32023G30KT P6SM OVC025
     FM281800 31022G32KT P6SM OVC050
     FM282100 32019G26KT P6SM SKC
     FM290000 33006KT P6SM SKC=

USA.gov is the U.S. government's official web portal to all federal, state and local government web resources and services.